createdAt,value
2018-05-07T00:01:28.333Z,15.20
2018-05-07T00:04:01.588Z,15.20
2018-05-07T00:06:34.090Z,15.10
2018-05-07T00:09:07.194Z,15.00
2018-05-07T00:11:39.669Z,15.00
2018-05-07T00:14:12.030Z,15.00
2018-05-07T00:16:44.549Z,14.90
2018-05-07T00:19:17.699Z,14.80
2018-05-07T00:21:50.177Z,14.80
2018-05-07T00:24:23.326Z,14.80
2018-05-07T00:26:55.802Z,14.80
2018-05-07T00:29:28.467Z,14.80
2018-05-07T00:32:01.166Z,14.80
2018-05-07T00:34:33.671Z,14.80
2018-05-07T00:37:06.222Z,14.80
2018-05-07T00:39:38.833Z,14.80
2018-05-07T00:42:11.284Z,14.70
2018-05-07T00:44:43.692Z,14.70
2018-05-07T00:47:16.129Z,14.60
2018-05-07T00:49:48.757Z,14.60
2018-05-07T00:52:21.185Z,14.50
2018-05-07T00:55:06.082Z,14.40
2018-05-07T00:57:38.671Z,14.40
2018-05-07T01:00:11.038Z,14.30
2018-05-07T01:02:44.139Z,14.10
2018-05-07T01:05:17.610Z,14.00
2018-05-07T01:07:50.262Z,14.00
2018-05-07T01:10:22.747Z,13.90
2018-05-07T01:12:55.911Z,13.60
2018-05-07T01:15:28.654Z,13.60
2018-05-07T01:18:01.754Z,13.40
2018-05-07T01:20:35.048Z,13.30
2018-05-07T01:23:07.455Z,13.30
2018-05-07T01:25:40.102Z,13.30
2018-05-07T01:28:13.408Z,13.30
2018-05-07T01:30:46.038Z,13.30
2018-05-07T01:33:18.672Z,13.20
2018-05-07T01:35:51.078Z,13.00
2018-05-07T01:38:23.732Z,12.90
2018-05-07T01:40:56.164Z,12.90
2018-05-07T01:43:29.356Z,12.60
2018-05-07T01:46:02.837Z,12.50
2018-05-07T01:48:35.748Z,12.40
2018-05-07T01:51:08.974Z,12.40
2018-05-07T01:53:41.444Z,12.40
2018-05-07T01:56:13.936Z,12.40
2018-05-07T01:58:46.354Z,12.30
2018-05-07T02:01:19.563Z,12.00
2018-05-07T02:03:51.994Z,12.00
2018-05-07T02:06:24.514Z,12.00
2018-05-07T02:08:56.937Z,12.00
2018-05-07T02:11:30.134Z,11.80
2018-05-07T02:14:02.516Z,11.80
2018-05-07T02:16:35.003Z,11.70
2018-05-07T02:19:07.489Z,11.60
2018-05-07T02:21:40.736Z,11.60
2018-05-07T02:24:13.147Z,11.50
2018-05-07T02:26:45.507Z,11.50
2018-05-07T02:29:18.013Z,11.60
2018-05-07T02:31:50.623Z,11.60
2018-05-07T02:34:23.099Z,11.60
2018-05-07T02:36:55.689Z,11.70
2018-05-07T02:39:29.148Z,11.70
2018-05-07T02:42:01.654Z,11.60
2018-05-07T02:44:34.828Z,11.60
2018-05-07T02:47:07.872Z,11.60
2018-05-07T02:49:40.414Z,11.50
2018-05-07T02:52:12.782Z,11.50
2018-05-07T02:54:45.376Z,11.40
2018-05-07T02:57:18.029Z,11.20
2018-05-07T02:59:50.668Z,11.10
2018-05-07T03:02:23.159Z,11.00
2018-05-07T03:04:56.351Z,10.90
2018-05-07T03:07:29.123Z,10.90
2018-05-07T03:10:02.413Z,10.70
2018-05-07T03:12:35.708Z,10.60
2018-05-07T03:15:08.948Z,10.60
2018-05-07T03:17:41.502Z,10.60
2018-05-07T03:20:13.969Z,10.50
2018-05-07T03:22:46.354Z,10.50
2018-05-07T03:25:18.888Z,10.50
2018-05-07T03:27:51.341Z,10.40
2018-05-07T03:30:23.846Z,10.30
2018-05-07T03:32:56.273Z,10.30
2018-05-07T03:35:29.656Z,10.30
2018-05-07T03:38:02.363Z,10.30
2018-05-07T03:40:34.733Z,10.30
2018-05-07T03:43:07.142Z,10.30
2018-05-07T03:45:39.683Z,10.30
2018-05-07T03:48:12.849Z,10.20
2018-05-07T03:50:45.337Z,10.10
2018-05-07T03:53:17.752Z,10.10
2018-05-07T03:55:50.188Z,10.10
2018-05-07T03:58:23.329Z,10.00
2018-05-07T04:00:56.831Z,10.00
2018-05-07T04:03:30.787Z,9.90
2018-05-07T04:06:03.212Z,9.90
2018-05-07T04:08:36.478Z,9.90
2018-05-07T04:11:09.693Z,10.00
2018-05-07T04:13:42.109Z,9.90
2018-05-07T04:16:26.961Z,10.00
2018-05-07T04:19:12.054Z,10.00
2018-05-07T04:21:57.148Z,10.00
2018-05-07T04:24:29.887Z,10.00
2018-05-07T04:27:03.240Z,9.90
2018-05-07T04:29:36.025Z,9.90
2018-05-07T04:32:08.596Z,9.90
2018-05-07T04:34:41.342Z,9.90
2018-05-07T04:37:14.348Z,9.90
2018-05-07T04:39:47.248Z,9.90
2018-05-07T04:42:20.943Z,10.10
2018-05-07T04:44:55.708Z,10.30
2018-05-07T04:47:28.747Z,10.20
2018-05-07T04:50:01.346Z,10.40
2018-05-07T04:52:34.013Z,10.50
2018-05-07T04:55:07.200Z,10.80
2018-05-07T04:57:40.395Z,10.90
2018-05-07T05:00:13.593Z,11.00
2018-05-07T05:02:46.249Z,11.10
2018-05-07T05:05:18.646Z,11.20
2018-05-07T05:07:51.728Z,11.40
2018-05-07T05:10:24.243Z,11.50
2018-05-07T05:12:56.917Z,11.60
2018-05-07T05:15:29.287Z,11.80
2018-05-07T05:18:01.634Z,11.90
2018-05-07T05:20:34.143Z,12.00
2018-05-07T05:23:06.577Z,12.10
2018-05-07T05:25:39.738Z,12.40
2018-05-07T05:28:12.369Z,12.40
2018-05-07T05:30:44.728Z,12.50
2018-05-07T05:33:17.506Z,12.70
2018-05-07T05:35:49.892Z,12.80
2018-05-07T05:38:22.544Z,13.00
2018-05-07T05:40:54.914Z,13.10
2018-05-07T05:43:28.076Z,13.30
2018-05-07T05:46:00.498Z,13.30
2018-05-07T05:48:32.879Z,13.40
2018-05-07T05:51:05.542Z,13.60
2018-05-07T05:53:38.762Z,13.90
2018-05-07T05:56:11.416Z,13.90
2018-05-07T05:58:44.161Z,14.00
2018-05-07T06:01:16.854Z,14.10
2018-05-07T06:03:49.711Z,14.20
2018-05-07T06:06:22.355Z,14.30
2018-05-07T06:08:54.915Z,14.40
2018-05-07T06:11:32.423Z,14.50
2018-05-07T06:14:05.580Z,14.90
2018-05-07T06:16:37.981Z,14.80
2018-05-07T06:19:10.435Z,15.00
2018-05-07T06:21:43.037Z,15.20
2018-05-07T06:24:15.675Z,15.30
2018-05-07T06:26:48.294Z,15.40
2018-05-07T06:29:20.955Z,15.50
2018-05-07T06:31:53.653Z,15.60
2018-05-07T06:34:26.358Z,15.70
2018-05-07T06:36:58.972Z,15.90
2018-05-07T06:39:32.322Z,16.00
2018-05-07T06:42:04.947Z,16.00
2018-05-07T06:44:37.639Z,16.10
2018-05-07T06:47:10.243Z,16.20
2018-05-07T06:49:43.528Z,16.40
2018-05-07T06:52:16.208Z,16.40
2018-05-07T06:54:49.323Z,16.60
2018-05-07T06:57:22.541Z,16.60
2018-05-07T06:59:55.085Z,16.60
2018-05-07T07:02:28.508Z,16.80
2018-05-07T07:05:01.620Z,16.90
2018-05-07T07:07:34.786Z,17.10
2018-05-07T07:10:07.484Z,17.00
2018-05-07T07:12:39.949Z,17.10
2018-05-07T07:15:12.592Z,17.30
2018-05-07T07:17:45.434Z,17.30
2018-05-07T07:20:18.702Z,17.40
2018-05-07T07:22:51.247Z,17.40
2018-05-07T07:25:23.714Z,17.50
2018-05-07T07:27:56.865Z,17.70
2018-05-07T07:30:29.233Z,17.70
2018-05-07T07:33:01.648Z,17.70
2018-05-07T07:35:34.043Z,17.80
2018-05-07T07:38:06.675Z,17.90
2018-05-07T07:40:39.144Z,18.00
2018-05-07T07:43:11.563Z,18.10
2018-05-07T07:45:44.174Z,18.20
2018-05-07T07:48:16.672Z,18.20
2018-05-07T07:50:49.230Z,18.40
2018-05-07T07:53:21.824Z,18.40
2018-05-07T07:55:54.304Z,18.50
2018-05-07T07:58:26.783Z,18.50
2018-05-07T08:00:59.389Z,18.60
2018-05-07T08:03:32.539Z,18.70
2018-05-07T08:06:05.643Z,18.80
2018-05-07T08:08:38.008Z,18.80
2018-05-07T08:11:10.493Z,18.90
2018-05-07T08:13:43.165Z,19.00
2018-05-07T08:16:15.983Z,19.10
2018-05-07T08:18:48.908Z,19.10
2018-05-07T08:21:22.459Z,19.20
2018-05-07T08:23:55.028Z,19.20
2018-05-07T08:26:28.195Z,19.40
2018-05-07T08:29:00.704Z,19.30
2018-05-07T08:31:33.421Z,19.50
2018-05-07T08:34:06.041Z,19.60
2018-05-07T08:36:38.439Z,19.60
2018-05-07T08:39:11.054Z,19.70
2018-05-07T08:41:43.849Z,19.80
2018-05-07T08:44:16.460Z,19.90
2018-05-07T08:46:49.019Z,20.00
2018-05-07T08:49:21.721Z,20.10
2018-05-07T08:51:55.064Z,20.30
2018-05-07T08:54:27.574Z,20.30
2018-05-07T08:56:59.959Z,20.40
2018-05-07T08:59:32.375Z,20.60
2018-05-07T09:02:04.982Z,20.70
2018-05-07T09:04:37.648Z,20.80
2018-05-07T09:07:10.072Z,21.00
2018-05-07T09:09:42.479Z,21.00
2018-05-07T09:12:15.070Z,21.10
2018-05-07T09:14:47.690Z,21.20
2018-05-07T09:17:20.108Z,21.20
2018-05-07T09:19:53.302Z,21.30
2018-05-07T09:22:26.712Z,21.40
2018-05-07T09:24:59.208Z,21.40
2018-05-07T09:27:31.867Z,21.40
2018-05-07T09:30:04.365Z,21.50
2018-05-07T09:32:37.034Z,21.60
2018-05-07T09:35:09.827Z,21.70
2018-05-07T09:37:42.371Z,21.80
2018-05-07T09:40:14.907Z,21.90
2018-05-07T09:42:48.095Z,22.00
2018-05-07T09:45:20.712Z,22.10
2018-05-07T09:47:53.293Z,22.20
2018-05-07T09:50:25.976Z,22.30
2018-05-07T09:52:58.538Z,22.40
2018-05-07T09:55:31.031Z,22.40
2018-05-07T09:58:04.354Z,22.60
2018-05-07T10:00:37.018Z,22.60
2018-05-07T10:03:10.455Z,22.80
2018-05-07T10:05:42.889Z,22.80
2018-05-07T10:08:15.709Z,22.90
2018-05-07T10:10:48.395Z,23.10
2018-05-07T10:13:20.938Z,23.00
2018-05-07T10:15:53.619Z,23.10
2018-05-07T10:18:26.810Z,23.20
2018-05-07T10:20:59.161Z,23.20
2018-05-07T10:23:31.516Z,23.20
2018-05-07T10:26:04.008Z,23.20
2018-05-07T10:28:36.567Z,23.30
2018-05-07T10:31:09.048Z,23.40
2018-05-07T10:33:41.645Z,23.40
2018-05-07T10:36:14.034Z,23.40
2018-05-07T10:38:46.430Z,23.50
2018-05-07T10:41:19.303Z,23.50
2018-05-07T10:43:51.738Z,23.60
2018-05-07T10:46:24.978Z,23.70
2018-05-07T10:48:57.568Z,23.70
2018-05-07T10:51:30.477Z,23.80
2018-05-07T10:54:03.137Z,23.90
2018-05-07T10:56:36.352Z,23.80
2018-05-07T10:59:08.885Z,23.80
2018-05-07T11:01:41.482Z,23.80
2018-05-07T11:04:14.090Z,23.90
2018-05-07T11:06:46.599Z,23.80
2018-05-07T11:09:19.472Z,23.80
2018-05-07T11:11:52.052Z,23.80
2018-05-07T11:14:24.673Z,23.80
2018-05-07T11:16:57.292Z,23.80
2018-05-07T11:19:30.496Z,23.90
2018-05-07T11:22:03.266Z,23.90
2018-05-07T11:24:35.897Z,23.90
2018-05-07T11:27:08.700Z,23.80
2018-05-07T11:29:41.323Z,23.90
2018-05-07T11:32:13.959Z,23.90
2018-05-07T11:34:46.597Z,24.00
2018-05-07T11:37:19.264Z,23.90
2018-05-07T11:39:51.722Z,23.80
2018-05-07T11:42:24.322Z,23.90
2018-05-07T11:44:56.938Z,23.90
2018-05-07T11:47:30.162Z,23.90
2018-05-07T11:50:03.433Z,23.90
2018-05-07T11:52:35.950Z,23.90
2018-05-07T11:55:09.115Z,23.90
2018-05-07T11:57:41.577Z,23.90
2018-05-07T12:00:14.332Z,23.90
2018-05-07T12:02:47.736Z,24.10
2018-05-07T12:05:20.202Z,24.10
2018-05-07T12:07:52.965Z,24.10
2018-05-07T12:10:25.525Z,24.10
2018-05-07T12:12:58.308Z,24.20
2018-05-07T12:15:30.762Z,24.30
2018-05-07T12:18:04.444Z,24.40
2018-05-07T12:20:37.871Z,24.50
2018-05-07T12:23:10.501Z,24.40
2018-05-07T12:25:43.649Z,24.60
2018-05-07T12:28:16.838Z,24.70
2018-05-07T12:30:50.028Z,24.80
2018-05-07T12:33:22.398Z,24.80
2018-05-07T12:35:54.810Z,24.90
2018-05-07T12:38:27.465Z,25.00
2018-05-07T12:40:59.952Z,25.00
2018-05-07T12:43:32.440Z,25.10
2018-05-07T12:46:05.052Z,25.20
2018-05-07T12:48:37.585Z,25.30
2018-05-07T12:51:10.104Z,25.40
2018-05-07T12:53:42.483Z,25.60
2018-05-07T12:56:14.996Z,25.70
2018-05-07T12:58:47.661Z,25.70
2018-05-07T13:01:20.122Z,25.90
2018-05-07T13:03:53.291Z,26.00
2018-05-07T13:06:25.807Z,26.10
2018-05-07T13:08:58.195Z,26.20
2018-05-07T13:11:30.699Z,26.20
2018-05-07T13:14:03.388Z,26.20
2018-05-07T13:16:37.342Z,26.30
2018-05-07T13:19:09.898Z,26.30
2018-05-07T13:21:43.098Z,26.40
2018-05-07T13:24:15.743Z,26.60
2018-05-07T13:26:48.395Z,26.80
2018-05-07T13:29:20.911Z,27.20
2018-05-07T13:31:53.519Z,27.50
2018-05-07T13:34:26.810Z,27.90
2018-05-07T13:36:59.285Z,27.90
2018-05-07T13:39:31.865Z,28.10
2018-05-07T13:42:05.275Z,28.00
2018-05-07T13:44:38.452Z,28.00
2018-05-07T13:47:11.298Z,28.00
2018-05-07T13:49:43.874Z,27.90
2018-05-07T13:52:16.543Z,28.20
2018-05-07T13:54:49.689Z,28.90
2018-05-07T13:57:22.845Z,29.00
2018-05-07T13:59:55.314Z,29.00
2018-05-07T14:02:28.475Z,29.00
2018-05-07T14:05:00.870Z,28.90
2018-05-07T14:07:33.523Z,28.80
2018-05-07T14:10:06.219Z,28.60
2018-05-07T14:12:38.834Z,28.30
2018-05-07T14:15:11.233Z,28.10
2018-05-07T14:17:43.654Z,28.00
2018-05-07T14:20:16.208Z,27.80
2018-05-07T14:22:48.737Z,27.80
2018-05-07T14:25:21.287Z,27.70
2018-05-07T14:27:53.869Z,27.60
2018-05-07T14:30:26.539Z,27.60
2018-05-07T14:32:59.168Z,27.60
2018-05-07T14:35:31.768Z,27.70
2018-05-07T14:38:04.263Z,27.80
2018-05-07T14:40:36.973Z,28.00
2018-05-07T14:43:09.675Z,28.10
2018-05-07T14:45:42.841Z,28.40
2018-05-07T14:48:15.870Z,28.40
2018-05-07T14:50:48.547Z,28.50
2018-05-07T14:53:20.910Z,28.70
2018-05-07T14:55:53.378Z,28.80
2018-05-07T14:58:26.822Z,28.90
2018-05-07T15:00:59.720Z,28.90
2018-05-07T15:03:33.018Z,29.40
2018-05-07T15:06:05.495Z,29.40
2018-05-07T15:08:38.240Z,30.20
2018-05-07T15:11:10.649Z,31.00
2018-05-07T15:13:43.129Z,31.40
2018-05-07T15:16:16.024Z,31.40
2018-05-07T15:18:48.526Z,31.60
2018-05-07T15:21:21.247Z,31.90
2018-05-07T15:23:54.705Z,33.30
2018-05-07T15:26:27.132Z,33.20
2018-05-07T15:28:59.929Z,34.10
2018-05-07T15:31:32.453Z,34.60
2018-05-07T15:34:05.743Z,34.00
2018-05-07T15:36:38.918Z,33.30
2018-05-07T15:39:12.145Z,32.90
2018-05-07T15:41:45.360Z,32.80
2018-05-07T15:44:18.539Z,32.80
2018-05-07T15:46:51.164Z,32.80
2018-05-07T15:49:24.741Z,32.80
2018-05-07T15:51:57.243Z,32.70
2018-05-07T15:54:30.145Z,32.70
2018-05-07T15:57:02.694Z,32.50
2018-05-07T15:59:35.199Z,32.20
2018-05-07T16:02:07.799Z,32.00
2018-05-07T16:04:40.610Z,31.50
2018-05-07T16:07:14.732Z,31.20
2018-05-07T16:09:47.444Z,31.20
2018-05-07T16:12:20.631Z,31.30
2018-05-07T16:14:53.118Z,31.70
2018-05-07T16:17:26.428Z,32.80
2018-05-07T16:19:59.626Z,33.50
2018-05-07T16:22:32.223Z,33.50
2018-05-07T16:25:05.605Z,34.70
2018-05-07T16:27:38.085Z,34.60
2018-05-07T16:30:10.718Z,35.60
2018-05-07T16:32:43.345Z,36.70
2018-05-07T16:35:16.014Z,37.60
2018-05-07T16:37:49.429Z,39.00
2018-05-07T16:40:22.109Z,38.90
2018-05-07T16:42:54.923Z,39.00
2018-05-07T16:45:27.423Z,38.40
2018-05-07T16:47:59.929Z,37.90
2018-05-07T16:50:32.572Z,36.60
2018-05-07T16:53:05.179Z,35.40
2018-05-07T16:55:37.891Z,34.30
2018-05-07T16:58:10.609Z,32.80
2018-05-07T17:00:43.145Z,31.70
2018-05-07T17:03:16.434Z,29.50
2018-05-07T17:05:49.189Z,29.50
2018-05-07T17:08:21.991Z,28.80
2018-05-07T17:10:55.362Z,27.70
2018-05-07T17:13:27.986Z,27.60
2018-05-07T17:16:00.675Z,27.30
2018-05-07T17:18:33.434Z,26.90
2018-05-07T17:21:06.058Z,26.60
2018-05-07T17:23:38.528Z,26.20
2018-05-07T17:26:11.960Z,25.70
2018-05-07T17:28:45.153Z,25.50
2018-05-07T17:31:18.032Z,25.50
2018-05-07T17:33:51.131Z,25.30
2018-05-07T17:36:23.764Z,25.20
2018-05-07T17:38:56.469Z,25.00
2018-05-07T17:41:29.657Z,24.70
2018-05-07T17:44:14.393Z,24.60
2018-05-07T17:46:59.309Z,24.50
2018-05-07T17:49:32.832Z,24.20
2018-05-07T17:52:05.433Z,24.20
2018-05-07T17:54:38.327Z,24.10
2018-05-07T17:57:10.895Z,24.00
2018-05-07T17:59:43.734Z,23.90
2018-05-07T18:02:16.360Z,23.80
2018-05-07T18:04:49.104Z,23.70
2018-05-07T18:07:21.744Z,23.50
2018-05-07T18:09:54.309Z,23.40
2018-05-07T18:12:27.748Z,23.20
2018-05-07T18:15:00.255Z,23.10
2018-05-07T18:17:32.990Z,23.00
2018-05-07T18:20:05.925Z,22.90
2018-05-07T18:22:39.269Z,22.60
2018-05-07T18:25:12.007Z,22.60
2018-05-07T18:27:44.686Z,22.50
2018-05-07T18:30:17.295Z,22.40
2018-05-07T18:32:50.066Z,22.30
2018-05-07T18:35:22.695Z,22.20
2018-05-07T18:37:55.595Z,22.10
2018-05-07T18:40:28.332Z,22.00
2018-05-07T18:43:01.105Z,21.90
2018-05-07T18:45:33.832Z,21.80
2018-05-07T18:48:06.495Z,21.70
2018-05-07T18:50:39.125Z,21.60
2018-05-07T18:53:12.048Z,21.50
2018-05-07T18:55:45.443Z,21.30
2018-05-07T18:58:18.080Z,21.30
2018-05-07T19:00:50.763Z,21.30
2018-05-07T19:03:23.442Z,21.20
2018-05-07T19:05:56.360Z,21.00
2018-05-07T19:08:30.175Z,20.70
2018-05-07T19:11:03.058Z,20.70
2018-05-07T19:13:35.847Z,20.60
2018-05-07T19:16:08.605Z,20.50
2018-05-07T19:18:41.275Z,20.40
2018-05-07T19:21:14.037Z,20.20
2018-05-07T19:23:46.738Z,20.00
2018-05-07T19:26:19.416Z,19.80
2018-05-07T19:28:56.194Z,19.60
2018-05-07T19:31:29.020Z,19.30
2018-05-07T19:34:01.755Z,19.10
2018-05-07T19:36:34.466Z,18.90
2018-05-07T19:39:07.051Z,18.80
2018-05-07T19:41:39.646Z,18.70
2018-05-07T19:44:12.521Z,18.50
2018-05-07T19:46:45.016Z,18.30
2018-05-07T19:49:17.824Z,18.20
2018-05-07T19:51:50.467Z,18.10
2018-05-07T19:54:23.161Z,17.90
2018-05-07T19:56:56.738Z,17.70
2018-05-07T19:59:29.506Z,17.60
2018-05-07T20:02:02.128Z,17.60
2018-05-07T20:04:34.785Z,17.60
2018-05-07T20:07:07.661Z,17.60
2018-05-07T20:09:40.941Z,17.50
2018-05-07T20:12:13.719Z,17.40
2018-05-07T20:14:46.411Z,17.30
2018-05-07T20:17:19.032Z,17.20
2018-05-07T20:19:52.374Z,16.90
2018-05-07T20:22:25.979Z,16.80
2018-05-07T20:24:59.154Z,16.60
2018-05-07T20:27:31.728Z,16.60
2018-05-07T20:30:04.180Z,16.50
2018-05-07T20:32:37.008Z,16.40
2018-05-07T20:35:09.555Z,16.40
2018-05-07T20:37:42.421Z,16.30
2018-05-07T20:40:15.393Z,16.30
2018-05-07T20:42:47.938Z,16.30
2018-05-07T20:45:20.662Z,16.30
2018-05-07T20:47:53.464Z,16.30
2018-05-07T20:50:26.044Z,16.30
2018-05-07T20:52:58.950Z,16.30
2018-05-07T20:55:32.100Z,16.20
2018-05-07T20:58:04.563Z,16.10
2018-05-07T21:00:37.301Z,16.20
2018-05-07T21:03:09.923Z,16.20
2018-05-07T21:05:43.215Z,16.20
2018-05-07T21:08:15.606Z,16.20
2018-05-07T21:10:48.060Z,16.20
2018-05-07T21:13:20.854Z,16.20
2018-05-07T21:15:53.375Z,16.20
2018-05-07T21:18:26.097Z,16.20
2018-05-07T21:20:58.603Z,16.20
2018-05-07T21:23:31.850Z,15.80
2018-05-07T21:26:04.685Z,15.80
2018-05-07T21:28:37.118Z,15.60
2018-05-07T21:31:09.691Z,15.60
2018-05-07T21:33:42.438Z,15.50
2018-05-07T21:36:14.961Z,15.40
2018-05-07T21:38:48.264Z,15.40
2018-05-07T21:41:20.923Z,15.40
2018-05-07T21:43:53.620Z,15.30
2018-05-07T21:46:26.318Z,15.10
2018-05-07T21:48:59.596Z,14.80
2018-05-07T21:51:33.005Z,14.70
2018-05-07T21:54:06.233Z,14.60
2018-05-07T21:56:38.782Z,14.60
2018-05-07T21:59:11.402Z,14.70
2018-05-07T22:01:44.789Z,14.70
2018-05-07T22:04:17.435Z,14.70
2018-05-07T22:06:50.322Z,14.70
2018-05-07T22:09:22.991Z,14.70
2018-05-07T22:11:55.907Z,14.70
2018-05-07T22:14:28.643Z,14.70
2018-05-07T22:17:01.240Z,14.60
2018-05-07T22:19:33.637Z,14.60
2018-05-07T22:22:06.194Z,14.60
2018-05-07T22:24:38.780Z,14.60
2018-05-07T22:27:11.445Z,14.50
2018-05-07T22:29:44.799Z,14.40
2018-05-07T22:32:18.221Z,14.40
2018-05-07T22:34:50.653Z,14.40
2018-05-07T22:37:23.219Z,14.40
2018-05-07T22:39:55.790Z,14.40
2018-05-07T22:42:28.556Z,14.30
2018-05-07T22:45:01.079Z,14.30
2018-05-07T22:47:33.525Z,14.20
2018-05-07T22:50:05.964Z,14.30
2018-05-07T22:52:38.668Z,14.20
2018-05-07T22:55:20.276Z,14.30
2018-05-07T22:57:52.670Z,14.20
2018-05-07T23:00:25.049Z,14.30
2018-05-07T23:02:57.578Z,14.20
2018-05-07T23:05:30.304Z,14.20
2018-05-07T23:08:02.924Z,14.10
2018-05-07T23:10:36.128Z,14.20
2018-05-07T23:13:08.887Z,14.20
2018-05-07T23:15:41.538Z,14.20
2018-05-07T23:18:14.027Z,14.30
2018-05-07T23:20:46.744Z,14.30
2018-05-07T23:23:20.594Z,14.20
2018-05-07T23:25:53.369Z,14.30
2018-05-07T23:28:26.412Z,14.20
2018-05-07T23:30:59.591Z,14.30
2018-05-07T23:33:31.932Z,14.20
2018-05-07T23:36:05.054Z,14.20
2018-05-07T23:38:37.484Z,14.20
2018-05-07T23:41:10.194Z,14.20
2018-05-07T23:43:43.578Z,14.20
2018-05-07T23:46:16.152Z,14.20
2018-05-07T23:48:48.834Z,14.10
2018-05-07T23:51:22.155Z,14.00
2018-05-07T23:53:54.478Z,14.00
2018-05-07T23:56:27.268Z,14.00
2018-05-07T23:58:59.828Z,14.00
